sensor_id;sensor_type;location;lat;lon;timestamp;temperature;humidity
54082;DHT22;39986;50.770;0.266;2023-03-01T00:00:42;2.30;99.90
54082;DHT22;39986;50.770;0.266;2023-03-01T00:03:11;2.20;99.90
54082;DHT22;39986;50.770;0.266;2023-03-01T00:05:46;2.20;99.90
54082;DHT22;39986;50.770;0.266;2023-03-01T00:08:12;2.20;99.90
54082;DHT22;39986;50.770;0.266;2023-03-01T00:10:37;2.20;99.90
54082;DHT22;39986;50.770;0.266;2023-03-01T00:13:03;2.20;99.90
54082;DHT22;39986;50.770;0.266;2023-03-01T00:15:31;2.20;99.90
54082;DHT22;39986;50.770;0.266;2023-03-01T00:17:57;2.20;99.90
54082;DHT22;39986;50.770;0.266;2023-03-01T00:20:23;2.20;99.90
54082;DHT22;39986;50.770;0.266;2023-03-01T00:22:48;2.20;99.90
54082;DHT22;39986;50.770;0.266;2023-03-01T00:25:14;2.20;99.90
54082;DHT22;39986;50.770;0.266;2023-03-01T00:27:40;2.10;99.90
54082;DHT22;39986;50.770;0.266;2023-03-01T00:30:06;2.10;99.90
54082;DHT22;39986;50.770;0.266;2023-03-01T00:32:32;2.20;99.90
54082;DHT22;39986;50.770;0.266;2023-03-01T00:34:57;2.10;99.90
54082;DHT22;39986;50.770;0.266;2023-03-01T00:37:23;2.10;99.90
54082;DHT22;39986;50.770;0.266;2023-03-01T00:39:49;2.10;99.90
54082;DHT22;39986;50.770;0.266;2023-03-01T00:42:15;2.10;99.90
54082;DHT22;39986;50.770;0.266;2023-03-01T00:44:41;2.10;99.90
54082;DHT22;39986;50.770;0.266;2023-03-01T00:47:07;2.00;99.90
54082;DHT22;39986;50.770;0.266;2023-03-01T00:49:32;2.00;99.90
54082;DHT22;39986;50.770;0.266;2023-03-01T00:51:58;2.00;99.90
54082;DHT22;39986;50.770;0.266;2023-03-01T00:54:23;2.00;99.90
54082;DHT22;39986;50.770;0.266;2023-03-01T00:56:49;2.00;99.90
54082;DHT22;39986;50.770;0.266;2023-03-01T00:59:15;2.00;99.90
54082;DHT22;39986;50.770;0.266;2023-03-01T01:01:40;2.00;99.90
54082;DHT22;39986;50.770;0.266;2023-03-01T01:04:07;2.00;99.90
54082;DHT22;39986;50.770;0.266;2023-03-01T01:06:37;2.00;99.90
54082;DHT22;39986;50.770;0.266;2023-03-01T01:09:05;2.00;99.90
54082;DHT22;39986;50.770;0.266;2023-03-01T01:11:32;2.00;99.90
54082;DHT22;39986;50.770;0.266;2023-03-01T01:13:58;2.10;99.90
54082;DHT22;39986;50.770;0.266;2023-03-01T01:16:25;2.00;99.90
54082;DHT22;39986;50.770;0.266;2023-03-01T01:18:52;1.90;99.90
54082;DHT22;39986;50.770;0.266;2023-03-01T01:21:20;1.90;99.90
54082;DHT22;39986;50.770;0.266;2023-03-01T01:23:46;1.90;99.90
54082;DHT22;39986;50.770;0.266;2023-03-01T01:26:18;1.90;99.90
54082;DHT22;39986;50.770;0.266;2023-03-01T01:28:44;1.90;99.90
54082;DHT22;39986;50.770;0.266;2023-03-01T01:31:09;1.90;99.90
54082;DHT22;39986;50.770;0.266;2023-03-01T01:33:35;1.90;99.90
54082;DHT22;39986;50.770;0.266;2023-03-01T01:36:03;1.90;99.90
54082;DHT22;39986;50.770;0.266;2023-03-01T01:38:29;2.00;99.90
54082;DHT22;39986;50.770;0.266;2023-03-01T01:40:55;2.00;99.90
54082;DHT22;39986;50.770;0.266;2023-03-01T01:43:29;2.00;99.90
54082;DHT22;39986;50.770;0.266;2023-03-01T01:45:58;2.00;99.90
54082;DHT22;39986;50.770;0.266;2023-03-01T01:48:29;2.00;99.90
54082;DHT22;39986;50.770;0.266;2023-03-01T01:51:07;2.00;99.90
54082;DHT22;39986;50.770;0.266;2023-03-01T01:53:35;2.00;99.90
54082;DHT22;39986;50.770;0.266;2023-03-01T01:56:02;2.00;99.90
54082;DHT22;39986;50.770;0.266;2023-03-01T01:58:29;2.00;99.90
54082;DHT22;39986;50.770;0.266;2023-03-01T02:00:55;1.90;99.90
54082;DHT22;39986;50.770;0.266;2023-03-01T02:03:43;2.00;99.90
54082;DHT22;39986;50.770;0.266;2023-03-01T02:08:38;2.00;99.90
54082;DHT22;39986;50.770;0.266;2023-03-01T02:11:04;2.20;99.90
54082;DHT22;39986;50.770;0.266;2023-03-01T02:13:32;2.30;99.90
54082;DHT22;39986;50.770;0.266;2023-03-01T02:15:58;2.30;99.90
54082;DHT22;39986;50.770;0.266;2023-03-01T02:18:24;2.40;99.90
54082;DHT22;39986;50.770;0.266;2023-03-01T02:21:08;2.50;99.90
54082;DHT22;39986;50.770;0.266;2023-03-01T02:23:38;2.50;99.90
54082;DHT22;39986;50.770;0.266;2023-03-01T02:28:46;2.70;99.90
54082;DHT22;39986;50.770;0.266;2023-03-01T02:31:17;2.70;99.90
54082;DHT22;39986;50.770;0.266;2023-03-01T02:34:03;2.70;99.90
54082;DHT22;39986;50.770;0.266;2023-03-01T02:36:48;2.70;99.90
54082;DHT22;39986;50.770;0.266;2023-03-01T02:39:17;2.70;99.90
54082;DHT22;39986;50.770;0.266;2023-03-01T02:41:48;2.70;99.90
54082;DHT22;39986;50.770;0.266;2023-03-01T02:44:15;2.70;99.90
54082;DHT22;39986;50.770;0.266;2023-03-01T02:46:49;2.70;99.90
54082;DHT22;39986;50.770;0.266;2023-03-01T02:49:19;2.70;99.90
54082;DHT22;39986;50.770;0.266;2023-03-01T02:55:14;2.60;99.90
54082;DHT22;39986;50.770;0.266;2023-03-01T02:57:43;2.60;99.90
54082;DHT22;39986;50.770;0.266;2023-03-01T03:00:15;2.60;99.90
54082;DHT22;39986;50.770;0.266;2023-03-01T03:02:48;2.60;99.90
54082;DHT22;39986;50.770;0.266;2023-03-01T03:05:17;2.60;99.90
54082;DHT22;39986;50.770;0.266;2023-03-01T03:07:45;2.70;99.90
54082;DHT22;39986;50.770;0.266;2023-03-01T03:10:20;2.80;99.90
54082;DHT22;39986;50.770;0.266;2023-03-01T03:12:51;2.80;99.90
54082;DHT22;39986;50.770;0.266;2023-03-01T03:15:17;2.90;99.90
54082;DHT22;39986;50.770;0.266;2023-03-01T03:17:43;2.90;99.90
54082;DHT22;39986;50.770;0.266;2023-03-01T03:20:11;2.90;99.90
54082;DHT22;39986;50.770;0.266;2023-03-01T03:22:40;2.90;99.90
54082;DHT22;39986;50.770;0.266;2023-03-01T03:25:07;3.00;99.90
54082;DHT22;39986;50.770;0.266;2023-03-01T03:27:38;3.00;99.90
54082;DHT22;39986;50.770;0.266;2023-03-01T03:30:05;3.00;99.90
54082;DHT22;39986;50.770;0.266;2023-03-01T03:32:38;3.00;99.90
54082;DHT22;39986;50.770;0.266;2023-03-01T03:35:04;3.00;99.90
54082;DHT22;39986;50.770;0.266;2023-03-01T03:37:39;3.10;99.90
54082;DHT22;39986;50.770;0.266;2023-03-01T03:40:25;3.10;99.90
54082;DHT22;39986;50.770;0.266;2023-03-01T03:42:50;3.10;99.90
54082;DHT22;39986;50.770;0.266;2023-03-01T03:45:16;3.10;99.90
54082;DHT22;39986;50.770;0.266;2023-03-01T03:47:43;3.10;99.90
54082;DHT22;39986;50.770;0.266;2023-03-01T03:50:13;3.10;99.90
54082;DHT22;39986;50.770;0.266;2023-03-01T03:52:39;3.00;99.90
54082;DHT22;39986;50.770;0.266;2023-03-01T03:55:06;3.00;99.90
54082;DHT22;39986;50.770;0.266;2023-03-01T03:57:36;2.90;99.90
54082;DHT22;39986;50.770;0.266;2023-03-01T04:00:04;2.90;99.90
54082;DHT22;39986;50.770;0.266;2023-03-01T04:02:30;2.90;99.90
54082;DHT22;39986;50.770;0.266;2023-03-01T04:04:56;2.80;99.90
54082;DHT22;39986;50.770;0.266;2023-03-01T04:07:22;2.80;99.90
54082;DHT22;39986;50.770;0.266;2023-03-01T04:09:47;2.70;99.90
54082;DHT22;39986;50.770;0.266;2023-03-01T04:12:13;2.60;99.90
54082;DHT22;39986;50.770;0.266;2023-03-01T04:14:38;2.50;99.90
54082;DHT22;39986;50.770;0.266;2023-03-01T04:17:04;2.50;99.90
54082;DHT22;39986;50.770;0.266;2023-03-01T04:19:31;2.40;99.90
54082;DHT22;39986;50.770;0.266;2023-03-01T04:22:01;2.30;99.90
54082;DHT22;39986;50.770;0.266;2023-03-01T04:24:33;2.30;99.90
54082;DHT22;39986;50.770;0.266;2023-03-01T04:26:58;2.20;99.90
54082;DHT22;39986;50.770;0.266;2023-03-01T04:29:24;2.30;99.90
54082;DHT22;39986;50.770;0.266;2023-03-01T04:31:49;2.20;99.90
54082;DHT22;39986;50.770;0.266;2023-03-01T04:34:15;2.20;99.90
54082;DHT22;39986;50.770;0.266;2023-03-01T04:36:40;2.20;99.90
54082;DHT22;39986;50.770;0.266;2023-03-01T04:39:06;2.20;99.90
54082;DHT22;39986;50.770;0.266;2023-03-01T04:41:37;2.10;99.90
54082;DHT22;39986;50.770;0.266;2023-03-01T04:44:04;2.10;99.90
54082;DHT22;39986;50.770;0.266;2023-03-01T04:46:30;2.10;99.90
54082;DHT22;39986;50.770;0.266;2023-03-01T04:48:55;2.10;99.90
54082;DHT22;39986;50.770;0.266;2023-03-01T04:51:21;2.00;99.90
54082;DHT22;39986;50.770;0.266;2023-03-01T04:53:47;2.00;99.90
54082;DHT22;39986;50.770;0.266;2023-03-01T04:56:13;1.90;99.90
54082;DHT22;39986;50.770;0.266;2023-03-01T04:58:44;1.90;99.90
54082;DHT22;39986;50.770;0.266;2023-03-01T05:01:18;1.90;99.90
54082;DHT22;39986;50.770;0.266;2023-03-01T05:03:54;1.80;99.90
54082;DHT22;39986;50.770;0.266;2023-03-01T05:06:20;1.90;99.90
54082;DHT22;39986;50.770;0.266;2023-03-01T05:08:46;1.90;99.90
54082;DHT22;39986;50.770;0.266;2023-03-01T05:11:12;1.80;99.90
54082;DHT22;39986;50.770;0.266;2023-03-01T05:13:39;1.90;99.90
54082;DHT22;39986;50.770;0.266;2023-03-01T05:16:06;1.90;99.90
54082;DHT22;39986;50.770;0.266;2023-03-01T05:18:33;1.90;99.90
54082;DHT22;39986;50.770;0.266;2023-03-01T05:21:05;1.90;99.90
54082;DHT22;39986;50.770;0.266;2023-03-01T05:23:31;1.90;99.90
54082;DHT22;39986;50.770;0.266;2023-03-01T05:26:05;1.90;99.90
54082;DHT22;39986;50.770;0.266;2023-03-01T05:28:31;1.90;99.90
54082;DHT22;39986;50.770;0.266;2023-03-01T05:30:57;1.80;99.90
54082;DHT22;39986;50.770;0.266;2023-03-01T05:33:23;1.80;99.90
54082;DHT22;39986;50.770;0.266;2023-03-01T05:35:50;1.80;99.90
54082;DHT22;39986;50.770;0.266;2023-03-01T05:38:17;1.80;99.90
54082;DHT22;39986;50.770;0.266;2023-03-01T05:40:43;1.80;99.90
54082;DHT22;39986;50.770;0.266;2023-03-01T05:43:09;1.80;99.90
54082;DHT22;39986;50.770;0.266;2023-03-01T05:45:36;1.80;99.90
54082;DHT22;39986;50.770;0.266;2023-03-01T05:48:02;1.80;99.90
54082;DHT22;39986;50.770;0.266;2023-03-01T05:50:29;1.80;99.90
54082;DHT22;39986;50.770;0.266;2023-03-01T05:53:00;1.80;99.90
54082;DHT22;39986;50.770;0.266;2023-03-01T05:55:28;1.80;99.90
54082;DHT22;39986;50.770;0.266;2023-03-01T05:57:53;1.70;99.90
54082;DHT22;39986;50.770;0.266;2023-03-01T06:00:19;1.80;99.90
54082;DHT22;39986;50.770;0.266;2023-03-01T06:02:47;1.80;99.90
54082;DHT22;39986;50.770;0.266;2023-03-01T06:05:14;1.80;99.90
54082;DHT22;39986;50.770;0.266;2023-03-01T06:07:40;1.80;99.90
54082;DHT22;39986;50.770;0.266;2023-03-01T06:10:05;1.80;99.90
54082;DHT22;39986;50.770;0.266;2023-03-01T06:12:35;1.80;99.90
54082;DHT22;39986;50.770;0.266;2023-03-01T06:15:02;1.80;99.90
54082;DHT22;39986;50.770;0.266;2023-03-01T06:17:30;1.80;99.90
54082;DHT22;39986;50.770;0.266;2023-03-01T06:19:56;1.80;99.90
54082;DHT22;39986;50.770;0.266;2023-03-01T06:22:22;1.80;99.90
54082;DHT22;39986;50.770;0.266;2023-03-01T06:24:47;1.70;99.90
54082;DHT22;39986;50.770;0.266;2023-03-01T06:27:13;1.80;99.90
54082;DHT22;39986;50.770;0.266;2023-03-01T06:29:39;1.80;99.90
54082;DHT22;39986;50.770;0.266;2023-03-01T06:32:04;1.90;99.90
54082;DHT22;39986;50.770;0.266;2023-03-01T06:34:30;1.90;99.90
54082;DHT22;39986;50.770;0.266;2023-03-01T06:36:56;1.90;99.90
54082;DHT22;39986;50.770;0.266;2023-03-01T06:39:22;1.90;99.90
54082;DHT22;39986;50.770;0.266;2023-03-01T06:41:47;1.90;99.90
54082;DHT22;39986;50.770;0.266;2023-03-01T06:44:13;1.90;99.90
54082;DHT22;39986;50.770;0.266;2023-03-01T06:46:40;1.90;99.90
54082;DHT22;39986;50.770;0.266;2023-03-01T06:49:06;2.00;99.90
54082;DHT22;39986;50.770;0.266;2023-03-01T06:51:38;2.00;99.90
54082;DHT22;39986;50.770;0.266;2023-03-01T06:54:04;2.00;99.90
54082;DHT22;39986;50.770;0.266;2023-03-01T06:56:31;2.00;99.90
54082;DHT22;39986;50.770;0.266;2023-03-01T06:58:57;2.00;99.90
54082;DHT22;39986;50.770;0.266;2023-03-01T07:01:23;2.00;99.90
54082;DHT22;39986;50.770;0.266;2023-03-01T07:03:48;2.00;99.90
54082;DHT22;39986;50.770;0.266;2023-03-01T07:06:14;1.90;99.90
54082;DHT22;39986;50.770;0.266;2023-03-01T07:08:40;2.00;99.90
54082;DHT22;39986;50.770;0.266;2023-03-01T07:11:06;2.00;99.90
54082;DHT22;39986;50.770;0.266;2023-03-01T07:13:32;2.10;99.90
54082;DHT22;39986;50.770;0.266;2023-03-01T07:15:57;2.10;99.90
54082;DHT22;39986;50.770;0.266;2023-03-01T07:18:23;2.20;99.90
54082;DHT22;39986;50.770;0.266;2023-03-01T07:20:49;2.20;99.90
54082;DHT22;39986;50.770;0.266;2023-03-01T07:23:15;2.30;99.90
54082;DHT22;39986;50.770;0.266;2023-03-01T07:25:41;2.40;99.90
54082;DHT22;39986;50.770;0.266;2023-03-01T07:28:06;2.40;99.90
54082;DHT22;39986;50.770;0.266;2023-03-01T07:30:32;2.50;99.90
54082;DHT22;39986;50.770;0.266;2023-03-01T07:32:58;2.50;99.90
54082;DHT22;39986;50.770;0.266;2023-03-01T07:35:27;2.60;99.90
54082;DHT22;39986;50.770;0.266;2023-03-01T07:37:53;2.60;99.90
54082;DHT22;39986;50.770;0.266;2023-03-01T07:40:19;2.70;99.90
54082;DHT22;39986;50.770;0.266;2023-03-01T07:42:45;2.80;99.90
54082;DHT22;39986;50.770;0.266;2023-03-01T07:45:11;2.90;99.90
54082;DHT22;39986;50.770;0.266;2023-03-01T07:47:37;2.90;99.90
54082;DHT22;39986;50.770;0.266;2023-03-01T07:50:04;2.90;99.90
54082;DHT22;39986;50.770;0.266;2023-03-01T07:52:30;3.00;99.90
54082;DHT22;39986;50.770;0.266;2023-03-01T07:54:57;3.20;99.90
54082;DHT22;39986;50.770;0.266;2023-03-01T07:57:23;3.20;99.90
54082;DHT22;39986;50.770;0.266;2023-03-01T07:59:49;3.30;99.90
54082;DHT22;39986;50.770;0.266;2023-03-01T08:02:14;3.30;99.90
54082;DHT22;39986;50.770;0.266;2023-03-01T08:04:41;3.40;99.90
54082;DHT22;39986;50.770;0.266;2023-03-01T08:07:07;3.50;99.90
54082;DHT22;39986;50.770;0.266;2023-03-01T08:09:36;3.60;99.90
54082;DHT22;39986;50.770;0.266;2023-03-01T08:12:03;3.70;99.90
54082;DHT22;39986;50.770;0.266;2023-03-01T08:14:30;3.80;99.90
54082;DHT22;39986;50.770;0.266;2023-03-01T08:16:56;3.80;99.90
54082;DHT22;39986;50.770;0.266;2023-03-01T08:19:22;3.90;99.90
54082;DHT22;39986;50.770;0.266;2023-03-01T08:21:47;4.00;99.90
54082;DHT22;39986;50.770;0.266;2023-03-01T08:24:13;4.10;99.90
54082;DHT22;39986;50.770;0.266;2023-03-01T08:26:39;4.10;99.90
54082;DHT22;39986;50.770;0.266;2023-03-01T08:29:05;4.20;99.90
54082;DHT22;39986;50.770;0.266;2023-03-01T08:31:33;4.20;99.90
54082;DHT22;39986;50.770;0.266;2023-03-01T08:34:03;4.30;99.90
54082;DHT22;39986;50.770;0.266;2023-03-01T08:36:32;4.40;99.90
54082;DHT22;39986;50.770;0.266;2023-03-01T08:38:58;4.50;99.90
54082;DHT22;39986;50.770;0.266;2023-03-01T08:41:24;4.50;99.90
54082;DHT22;39986;50.770;0.266;2023-03-01T08:43:49;4.60;99.90
54082;DHT22;39986;50.770;0.266;2023-03-01T08:46:15;4.70;99.90
54082;DHT22;39986;50.770;0.266;2023-03-01T08:48:41;4.80;99.90
54082;DHT22;39986;50.770;0.266;2023-03-01T08:51:14;4.80;99.90
54082;DHT22;39986;50.770;0.266;2023-03-01T08:53:40;4.90;99.90
54082;DHT22;39986;50.770;0.266;2023-03-01T08:56:06;5.00;99.90
54082;DHT22;39986;50.770;0.266;2023-03-01T08:58:32;5.10;99.90
54082;DHT22;39986;50.770;0.266;2023-03-01T09:00:58;5.10;99.90
54082;DHT22;39986;50.770;0.266;2023-03-01T09:03:24;5.10;99.90
54082;DHT22;39986;50.770;0.266;2023-03-01T09:05:51;5.20;99.90
54082;DHT22;39986;50.770;0.266;2023-03-01T09:08:17;5.20;99.90
54082;DHT22;39986;50.770;0.266;2023-03-01T09:10:43;5.30;99.90
54082;DHT22;39986;50.770;0.266;2023-03-01T09:13:09;5.40;99.90
54082;DHT22;39986;50.770;0.266;2023-03-01T09:15:38;5.50;99.90
54082;DHT22;39986;50.770;0.266;2023-03-01T09:18:04;5.60;99.90
54082;DHT22;39986;50.770;0.266;2023-03-01T09:20:31;5.70;99.90
54082;DHT22;39986;50.770;0.266;2023-03-01T09:22:57;5.90;99.90
54082;DHT22;39986;50.770;0.266;2023-03-01T09:25:23;6.10;99.90
54082;DHT22;39986;50.770;0.266;2023-03-01T09:27:52;6.10;99.90
54082;DHT22;39986;50.770;0.266;2023-03-01T09:30:18;6.20;99.90
54082;DHT22;39986;50.770;0.266;2023-03-01T09:32:44;6.40;99.90
54082;DHT22;39986;50.770;0.266;2023-03-01T09:35:11;6.60;99.90
54082;DHT22;39986;50.770;0.266;2023-03-01T09:37:36;6.70;99.90
54082;DHT22;39986;50.770;0.266;2023-03-01T09:40:14;6.80;99.90
54082;DHT22;39986;50.770;0.266;2023-03-01T09:42:45;6.90;99.90
54082;DHT22;39986;50.770;0.266;2023-03-01T09:45:14;7.00;99.90
54082;DHT22;39986;50.770;0.266;2023-03-01T09:47:41;7.20;99.90
54082;DHT22;39986;50.770;0.266;2023-03-01T09:50:16;7.20;99.90
54082;DHT22;39986;50.770;0.266;2023-03-01T09:52:47;7.30;99.90
54082;DHT22;39986;50.770;0.266;2023-03-01T09:55:17;7.40;99.90
54082;DHT22;39986;50.770;0.266;2023-03-01T09:57:47;7.60;99.90
54082;DHT22;39986;50.770;0.266;2023-03-01T10:02:50;7.70;99.90
54082;DHT22;39986;50.770;0.266;2023-03-01T10:05:38;7.80;99.90
54082;DHT22;39986;50.770;0.266;2023-03-01T10:08:33;7.40;99.90
54082;DHT22;39986;50.770;0.266;2023-03-01T10:11:03;7.30;99.90
54082;DHT22;39986;50.770;0.266;2023-03-01T10:16:04;7.70;99.90
54082;DHT22;39986;50.770;0.266;2023-03-01T10:18:33;8.20;99.90
54082;DHT22;39986;50.770;0.266;2023-03-01T10:21:22;8.80;99.90
54082;DHT22;39986;50.770;0.266;2023-03-01T10:23:52;9.50;99.90
54082;DHT22;39986;50.770;0.266;2023-03-01T10:34:33;10.90;99.90
54082;DHT22;39986;50.770;0.266;2023-03-01T10:36:59;11.40;99.90
54082;DHT22;39986;50.770;0.266;2023-03-01T10:39:26;11.80;99.90
54082;DHT22;39986;50.770;0.266;2023-03-01T10:41:54;12.80;99.90
54082;DHT22;39986;50.770;0.266;2023-03-01T10:44:47;13.90;99.90
54082;DHT22;39986;50.770;0.266;2023-03-01T10:47:21;15.50;99.90
54082;DHT22;39986;50.770;0.266;2023-03-01T10:49:51;16.50;99.90
54082;DHT22;39986;50.770;0.266;2023-03-01T10:52:20;16.30;99.90
54082;DHT22;39986;50.770;0.266;2023-03-01T10:54:54;17.70;99.90
54082;DHT22;39986;50.770;0.266;2023-03-01T10:57:36;19.00;99.90
54082;DHT22;39986;50.770;0.266;2023-03-01T11:00:25;18.70;99.80
54082;DHT22;39986;50.770;0.266;2023-03-01T11:03:03;19.50;96.60
54082;DHT22;39986;50.770;0.266;2023-03-01T11:05:29;20.10;95.60
54082;DHT22;39986;50.770;0.266;2023-03-01T11:07:56;20.30;94.30
54082;DHT22;39986;50.770;0.266;2023-03-01T11:12:47;16.20;98.90
54082;DHT22;39986;50.770;0.266;2023-03-01T11:15:24;14.60;99.90
54082;DHT22;39986;50.770;0.266;2023-03-01T11:17:50;13.60;99.90
54082;DHT22;39986;50.770;0.266;2023-03-01T11:22:55;12.60;99.90
54082;DHT22;39986;50.770;0.266;2023-03-01T11:25:29;13.30;99.90
54082;DHT22;39986;50.770;0.266;2023-03-01T11:27:58;14.80;99.90
54082;DHT22;39986;50.770;0.266;2023-03-01T11:30:34;14.70;99.90
54082;DHT22;39986;50.770;0.266;2023-03-01T11:35:27;13.60;99.90
54082;DHT22;39986;50.770;0.266;2023-03-01T11:43:12;12.60;99.90
54082;DHT22;39986;50.770;0.266;2023-03-01T11:48:48;11.60;99.90
54082;DHT22;39986;50.770;0.266;2023-03-01T11:54:27;10.80;99.90
54082;DHT22;39986;50.770;0.266;2023-03-01T11:59:45;10.60;99.90
54082;DHT22;39986;50.770;0.266;2023-03-01T12:14:06;10.00;99.90
54082;DHT22;39986;50.770;0.266;2023-03-01T12:16:39;9.90;99.90
54082;DHT22;39986;50.770;0.266;2023-03-01T12:26:36;10.70;99.90
54082;DHT22;39986;50.770;0.266;2023-03-01T12:29:46;10.90;99.90
54082;DHT22;39986;50.770;0.266;2023-03-01T12:32:25;11.40;99.90
54082;DHT22;39986;50.770;0.266;2023-03-01T12:35:06;12.00;99.90
54082;DHT22;39986;50.770;0.266;2023-03-01T12:37:48;12.30;99.90
54082;DHT22;39986;50.770;0.266;2023-03-01T12:40:39;12.60;99.90
54082;DHT22;39986;50.770;0.266;2023-03-01T12:46:21;14.20;99.90
54082;DHT22;39986;50.770;0.266;2023-03-01T12:51:30;14.30;99.90
54082;DHT22;39986;50.770;0.266;2023-03-01T12:53:58;13.40;99.90
54082;DHT22;39986;50.770;0.266;2023-03-01T12:56:31;12.70;99.90
54082;DHT22;39986;50.770;0.266;2023-03-01T13:17:47;9.70;99.90
54082;DHT22;39986;50.770;0.266;2023-03-01T13:20:19;9.50;99.90
54082;DHT22;39986;50.770;0.266;2023-03-01T13:23:03;9.40;99.90
54082;DHT22;39986;50.770;0.266;2023-03-01T13:25:30;9.30;99.90
54082;DHT22;39986;50.770;0.266;2023-03-01T13:31:00;9.10;99.90
54082;DHT22;39986;50.770;0.266;2023-03-01T13:35:52;9.00;99.90
54082;DHT22;39986;50.770;0.266;2023-03-01T13:41:06;8.90;99.90
54082;DHT22;39986;50.770;0.266;2023-03-01T13:43:35;8.90;99.90
54082;DHT22;39986;50.770;0.266;2023-03-01T13:46:18;9.00;99.90
54082;DHT22;39986;50.770;0.266;2023-03-01T13:48:45;9.10;99.90
54082;DHT22;39986;50.770;0.266;2023-03-01T13:51:13;9.20;99.90
54082;DHT22;39986;50.770;0.266;2023-03-01T13:53:40;9.20;99.90
54082;DHT22;39986;50.770;0.266;2023-03-01T13:59:02;9.40;99.90
54082;DHT22;39986;50.770;0.266;2023-03-01T14:01:30;9.50;99.90
54082;DHT22;39986;50.770;0.266;2023-03-01T14:03:57;9.40;99.90
54082;DHT22;39986;50.770;0.266;2023-03-01T14:06:28;9.20;99.90
54082;DHT22;39986;50.770;0.266;2023-03-01T14:09:26;9.10;99.90
54082;DHT22;39986;50.770;0.266;2023-03-01T14:20:09;8.90;99.90
54082;DHT22;39986;50.770;0.266;2023-03-01T14:22:36;8.80;99.90
54082;DHT22;39986;50.770;0.266;2023-03-01T14:25:06;8.80;99.90
54082;DHT22;39986;50.770;0.266;2023-03-01T14:27:33;8.80;99.90
54082;DHT22;39986;50.770;0.266;2023-03-01T14:30:03;9.00;99.90
54082;DHT22;39986;50.770;0.266;2023-03-01T14:32:30;8.90;99.90
54082;DHT22;39986;50.770;0.266;2023-03-01T14:34:57;8.90;99.90
54082;DHT22;39986;50.770;0.266;2023-03-01T14:37:34;8.90;99.90
54082;DHT22;39986;50.770;0.266;2023-03-01T14:40:03;9.00;99.90
54082;DHT22;39986;50.770;0.266;2023-03-01T14:42:34;9.10;99.90
54082;DHT22;39986;50.770;0.266;2023-03-01T14:45:01;9.40;99.90
54082;DHT22;39986;50.770;0.266;2023-03-01T14:47:34;9.20;99.90
54082;DHT22;39986;50.770;0.266;2023-03-01T14:52:30;9.00;99.90
54082;DHT22;39986;50.770;0.266;2023-03-01T14:54:59;9.00;99.90
54082;DHT22;39986;50.770;0.266;2023-03-01T14:57:25;8.90;99.90
54082;DHT22;39986;50.770;0.266;2023-03-01T14:59:51;8.90;99.90
54082;DHT22;39986;50.770;0.266;2023-03-01T15:02:22;9.20;99.90
54082;DHT22;39986;50.770;0.266;2023-03-01T15:04:51;9.20;99.90
54082;DHT22;39986;50.770;0.266;2023-03-01T15:07:17;9.00;99.90
54082;DHT22;39986;50.770;0.266;2023-03-01T15:09:44;9.00;99.90
54082;DHT22;39986;50.770;0.266;2023-03-01T15:14:54;8.90;99.90
54082;DHT22;39986;50.770;0.266;2023-03-01T15:17:27;8.80;99.90
54082;DHT22;39986;50.770;0.266;2023-03-01T15:19:54;8.80;99.90
54082;DHT22;39986;50.770;0.266;2023-03-01T15:22:20;8.70;99.90
54082;DHT22;39986;50.770;0.266;2023-03-01T15:24:46;8.70;99.90
54082;DHT22;39986;50.770;0.266;2023-03-01T15:27:16;8.80;99.90
54082;DHT22;39986;50.770;0.266;2023-03-01T15:29:53;8.90;99.90
54082;DHT22;39986;50.770;0.266;2023-03-01T15:32:30;9.10;99.90
54082;DHT22;39986;50.770;0.266;2023-03-01T15:34:57;9.90;99.90
54082;DHT22;39986;50.770;0.266;2023-03-01T15:37:39;12.80;99.90
54082;DHT22;39986;50.770;0.266;2023-03-01T15:40:25;14.30;99.90
54082;DHT22;39986;50.770;0.266;2023-03-01T15:43:00;13.90;99.90
54082;DHT22;39986;50.770;0.266;2023-03-01T15:45:28;12.90;99.90
54082;DHT22;39986;50.770;0.266;2023-03-01T15:47:55;12.00;99.90
54082;DHT22;39986;50.770;0.266;2023-03-01T15:50:24;11.10;99.90
54082;DHT22;39986;50.770;0.266;2023-03-01T15:52:50;10.60;99.90
54082;DHT22;39986;50.770;0.266;2023-03-01T15:55:17;10.20;99.90
54082;DHT22;39986;50.770;0.266;2023-03-01T15:57:43;9.80;99.90
54082;DHT22;39986;50.770;0.266;2023-03-01T16:00:12;9.60;99.90
54082;DHT22;39986;50.770;0.266;2023-03-01T16:02:39;9.50;99.90
54082;DHT22;39986;50.770;0.266;2023-03-01T16:05:05;9.40;99.90
54082;DHT22;39986;50.770;0.266;2023-03-01T16:07:30;9.50;99.90
54082;DHT22;39986;50.770;0.266;2023-03-01T16:09:56;9.70;99.90
54082;DHT22;39986;50.770;0.266;2023-03-01T16:12:22;9.80;99.90
54082;DHT22;39986;50.770;0.266;2023-03-01T16:14:49;9.70;99.90
54082;DHT22;39986;50.770;0.266;2023-03-01T16:17:15;9.60;99.90
54082;DHT22;39986;50.770;0.266;2023-03-01T16:19:41;9.40;99.90
54082;DHT22;39986;50.770;0.266;2023-03-01T16:22:06;9.20;99.90
54082;DHT22;39986;50.770;0.266;2023-03-01T16:24:34;9.00;99.90
54082;DHT22;39986;50.770;0.266;2023-03-01T16:27:01;9.10;99.90
54082;DHT22;39986;50.770;0.266;2023-03-01T16:29:26;9.10;99.90
54082;DHT22;39986;50.770;0.266;2023-03-01T16:31:54;9.00;99.90
54082;DHT22;39986;50.770;0.266;2023-03-01T16:34:20;9.00;99.90
54082;DHT22;39986;50.770;0.266;2023-03-01T16:36:47;8.90;99.90
54082;DHT22;39986;50.770;0.266;2023-03-01T16:39:13;8.80;99.90
54082;DHT22;39986;50.770;0.266;2023-03-01T16:41:38;8.70;99.90
54082;DHT22;39986;50.770;0.266;2023-03-01T16:44:04;8.60;99.90
54082;DHT22;39986;50.770;0.266;2023-03-01T16:46:29;8.50;99.90
54082;DHT22;39986;50.770;0.266;2023-03-01T16:48:55;8.50;99.90
54082;DHT22;39986;50.770;0.266;2023-03-01T16:51:22;8.40;99.90
54082;DHT22;39986;50.770;0.266;2023-03-01T16:53:49;8.30;99.90
54082;DHT22;39986;50.770;0.266;2023-03-01T16:56:16;8.40;99.90
54082;DHT22;39986;50.770;0.266;2023-03-01T16:58:43;8.30;99.90
54082;DHT22;39986;50.770;0.266;2023-03-01T17:01:11;8.20;99.90
54082;DHT22;39986;50.770;0.266;2023-03-01T17:03:38;8.20;99.90
54082;DHT22;39986;50.770;0.266;2023-03-01T17:06:11;8.10;99.90
54082;DHT22;39986;50.770;0.266;2023-03-01T17:08:37;8.10;99.90
54082;DHT22;39986;50.770;0.266;2023-03-01T17:11:04;8.00;99.90
54082;DHT22;39986;50.770;0.266;2023-03-01T17:13:30;7.90;99.90
54082;DHT22;39986;50.770;0.266;2023-03-01T17:15:56;7.80;99.90
54082;DHT22;39986;50.770;0.266;2023-03-01T17:18:21;7.80;99.90
54082;DHT22;39986;50.770;0.266;2023-03-01T17:20:46;7.60;99.90
54082;DHT22;39986;50.770;0.266;2023-03-01T17:23:12;7.60;99.90
54082;DHT22;39986;50.770;0.266;2023-03-01T17:25:42;7.50;99.90
54082;DHT22;39986;50.770;0.266;2023-03-01T17:28:09;7.40;99.90
54082;DHT22;39986;50.770;0.266;2023-03-01T17:30:35;7.30;99.90
54082;DHT22;39986;50.770;0.266;2023-03-01T17:33:01;7.20;99.90
54082;DHT22;39986;50.770;0.266;2023-03-01T17:35:26;7.10;99.90
54082;DHT22;39986;50.770;0.266;2023-03-01T17:37:52;6.90;99.90
54082;DHT22;39986;50.770;0.266;2023-03-01T17:40:17;6.90;99.90
54082;DHT22;39986;50.770;0.266;2023-03-01T17:42:43;6.80;99.90
54082;DHT22;39986;50.770;0.266;2023-03-01T17:45:09;6.70;99.90